Kitzbuhel, Austria
Current Conditions -  °F | °C
As of 11:50 PM on Saturday 25 Oct 2014 (Local Time) from LOWS Reporting Station
Scattered Clouds Scattered Clouds  
Wind Chill: 46°   Ceiling: Unl
Heat Index: 46°   Visibility: 4mi
Dew Point: 45°   Wind: 3mph
Humidity: 93%   Direction: 350°N
Pressure: 30.27"   Gusts: NA
Location:  47.45°N, 12.39°E
Report Text: LOWS 252150Z AUTO 35003KT 7000 FEW003 SCT046 08/07 Q1025
Loading
Personal Weather Stations






























Interactive Weather Map
Tropical Storm Tracking
New forecast layout! Learn more

10-Day Weather Forecast

Advertisements
Track Severe Weather on mobile